sensor_id;sensor_type;location;lat;lon;timestamp;pressure;altitude;pressure_sealevel;temperature;humidity
10261;BME280;5175;42.606;23.388;2023-08-20T00:01:12;94059.28;;;19.73;91.41
10261;BME280;5175;42.606;23.388;2023-08-20T00:03:43;94067.19;;;19.78;90.20
10261;BME280;5175;42.606;23.388;2023-08-20T00:06:12;94074.44;;;19.95;89.57
10261;BME280;5175;42.606;23.388;2023-08-20T00:08:39;94075.00;;;20.00;89.05
10261;BME280;5175;42.606;23.388;2023-08-20T00:11:06;94074.34;;;20.04;89.13
10261;BME280;5175;42.606;23.388;2023-08-20T00:13:32;94072.25;;;20.09;88.63
10261;BME280;5175;42.606;23.388;2023-08-20T00:15:59;94068.31;;;20.27;86.84
10261;BME280;5175;42.606;23.388;2023-08-20T00:18:27;94073.88;;;20.31;87.42
10261;BME280;5175;42.606;23.388;2023-08-20T00:20:55;94077.69;;;20.30;86.70
10261;BME280;5175;42.606;23.388;2023-08-20T00:23:23;94072.06;;;20.35;86.56
10261;BME280;5175;42.606;23.388;2023-08-20T00:25:50;94070.53;;;20.46;84.97
10261;BME280;5175;42.606;23.388;2023-08-20T00:28:19;94079.00;;;20.44;85.42
10261;BME280;5175;42.606;23.388;2023-08-20T00:30:46;94080.25;;;20.47;85.35
10261;BME280;5175;42.606;23.388;2023-08-20T00:33:14;94081.63;;;20.53;84.07
10261;BME280;5175;42.606;23.388;2023-08-20T00:35:41;94079.16;;;20.60;83.83
10261;BME280;5175;42.606;23.388;2023-08-20T00:38:09;94080.91;;;20.65;83.20
10261;BME280;5175;42.606;23.388;2023-08-20T00:40:36;94075.38;;;20.73;83.27
10261;BME280;5175;42.606;23.388;2023-08-20T00:43:03;94078.97;;;20.65;84.18
10261;BME280;5175;42.606;23.388;2023-08-20T00:45:30;94072.28;;;20.63;85.13
10261;BME280;5175;42.606;23.388;2023-08-20T00:47:57;94071.69;;;20.57;85.18
10261;BME280;5175;42.606;23.388;2023-08-20T00:50:24;94071.44;;;20.50;85.25
10261;BME280;5175;42.606;23.388;2023-08-20T00:52:51;94071.00;;;20.48;84.98
10261;BME280;5175;42.606;23.388;2023-08-20T00:55:19;94070.66;;;20.49;84.64
10261;BME280;5175;42.606;23.388;2023-08-20T00:57:46;94067.38;;;20.44;85.19
10261;BME280;5175;42.606;23.388;2023-08-20T01:00:13;94068.25;;;20.36;85.27
10261;BME280;5175;42.606;23.388;2023-08-20T01:02:41;94067.69;;;20.42;85.76
10261;BME280;5175;42.606;23.388;2023-08-20T01:05:09;94069.03;;;20.16;89.06
10261;BME280;5175;42.606;23.388;2023-08-20T01:07:45;94072.97;;;19.97;90.36
10261;BME280;5175;42.606;23.388;2023-08-20T01:10:21;94062.06;;;19.85;91.48
10261;BME280;5175;42.606;23.388;2023-08-20T01:12:51;94059.81;;;19.67;92.66
10261;BME280;5175;42.606;23.388;2023-08-20T01:15:18;94065.63;;;19.48;94.50
10261;BME280;5175;42.606;23.388;2023-08-20T01:17:45;94054.09;;;19.60;93.50
10261;BME280;5175;42.606;23.388;2023-08-20T01:20:13;94061.47;;;19.51;94.51
10261;BME280;5175;42.606;23.388;2023-08-20T01:23:01;94061.56;;;19.63;93.53
10261;BME280;5175;42.606;23.388;2023-08-20T01:25:46;94059.47;;;19.68;93.13
10261;BME280;5175;42.606;23.388;2023-08-20T01:28:26;94051.28;;;19.77;91.30
10261;BME280;5175;42.606;23.388;2023-08-20T01:30:54;94057.34;;;19.74;91.68
10261;BME280;5175;42.606;23.388;2023-08-20T01:33:23;94060.78;;;19.83;90.54
10261;BME280;5175;42.606;23.388;2023-08-20T01:35:49;94054.28;;;19.84;90.61
10261;BME280;5175;42.606;23.388;2023-08-20T01:38:16;94048.50;;;19.85;90.16
10261;BME280;5175;42.606;23.388;2023-08-20T01:40:43;94050.56;;;19.88;90.88
10261;BME280;5175;42.606;23.388;2023-08-20T01:43:10;94042.56;;;19.71;92.62
10261;BME280;5175;42.606;23.388;2023-08-20T01:45:38;94043.63;;;19.50;94.32
10261;BME280;5175;42.606;23.388;2023-08-20T01:48:06;94040.41;;;19.27;96.72
10261;BME280;5175;42.606;23.388;2023-08-20T01:50:35;94040.66;;;19.05;98.14
10261;BME280;5175;42.606;23.388;2023-08-20T01:53:02;94041.41;;;19.14;97.52
10261;BME280;5175;42.606;23.388;2023-08-20T01:55:29;94037.91;;;19.13;97.71
10261;BME280;5175;42.606;23.388;2023-08-20T01:57:56;94040.72;;;19.25;97.53
10261;BME280;5175;42.606;23.388;2023-08-20T02:00:23;94037.16;;;19.04;98.83
10261;BME280;5175;42.606;23.388;2023-08-20T02:02:51;94043.31;;;19.13;98.58
10261;BME280;5175;42.606;23.388;2023-08-20T02:05:18;94002.09;;;18.79;98.57
10261;BME280;5175;42.606;23.388;2023-08-20T02:07:45;94027.78;;;19.02;98.75
10261;BME280;5175;42.606;23.388;2023-08-20T02:10:12;94031.81;;;18.87;99.80
10261;BME280;5175;42.606;23.388;2023-08-20T02:12:40;93985.28;;;18.64;99.57
10261;BME280;5175;42.606;23.388;2023-08-20T02:15:08;94001.84;;;18.54;100.00
10261;BME280;5175;42.606;23.388;2023-08-20T02:17:36;94008.25;;;18.33;100.00
10261;BME280;5175;42.606;23.388;2023-08-20T02:20:06;94003.94;;;18.40;100.00
10261;BME280;5175;42.606;23.388;2023-08-20T02:22:35;94014.13;;;18.35;100.00
10261;BME280;5175;42.606;23.388;2023-08-20T02:25:02;94029.22;;;18.36;100.00
10261;BME280;5175;42.606;23.388;2023-08-20T02:27:29;94021.75;;;18.33;100.00
10261;BME280;5175;42.606;23.388;2023-08-20T02:29:56;94024.44;;;18.33;100.00
10261;BME280;5175;42.606;23.388;2023-08-20T02:32:22;94013.78;;;18.36;100.00
10261;BME280;5175;42.606;23.388;2023-08-20T02:34:50;93998.72;;;18.18;100.00
10261;BME280;5175;42.606;23.388;2023-08-20T02:37:19;94009.22;;;18.28;100.00
10261;BME280;5175;42.606;23.388;2023-08-20T02:39:46;94010.78;;;18.38;100.00
10261;BME280;5175;42.606;23.388;2023-08-20T02:42:13;94010.16;;;18.32;100.00
10261;BME280;5175;42.606;23.388;2023-08-20T02:44:40;94008.25;;;18.24;100.00
10261;BME280;5175;42.606;23.388;2023-08-20T02:47:07;94005.72;;;18.28;100.00
10261;BME280;5175;42.606;23.388;2023-08-20T02:49:34;94010.50;;;18.05;100.00
10261;BME280;5175;42.606;23.388;2023-08-20T02:52:02;94010.81;;;18.12;100.00
10261;BME280;5175;42.606;23.388;2023-08-20T02:54:31;94016.97;;;18.21;100.00
10261;BME280;5175;42.606;23.388;2023-08-20T02:56:59;94019.22;;;18.19;100.00
10261;BME280;5175;42.606;23.388;2023-08-20T02:59:26;94022.22;;;18.26;100.00
10261;BME280;5175;42.606;23.388;2023-08-20T03:01:53;94024.94;;;18.18;100.00
10261;BME280;5175;42.606;23.388;2023-08-20T03:04:20;93916.84;;;17.63;100.00
10261;BME280;5175;42.606;23.388;2023-08-20T03:06:47;94030.00;;;18.36;100.00
10261;BME280;5175;42.606;23.388;2023-08-20T03:09:14;94037.28;;;18.44;100.00
10261;BME280;5175;42.606;23.388;2023-08-20T03:11:43;94037.66;;;18.51;100.00
10261;BME280;5175;42.606;23.388;2023-08-20T03:14:10;94036.69;;;18.47;100.00
10261;BME280;5175;42.606;23.388;2023-08-20T03:16:37;94027.28;;;18.45;100.00
10261;BME280;5175;42.606;23.388;2023-08-20T03:19:04;94030.50;;;18.38;100.00
10261;BME280;5175;42.606;23.388;2023-08-20T03:21:31;94027.13;;;18.41;100.00
10261;BME280;5175;42.606;23.388;2023-08-20T03:23:58;94020.31;;;18.35;100.00
10261;BME280;5175;42.606;23.388;2023-08-20T03:26:25;94024.75;;;18.40;100.00
10261;BME280;5175;42.606;23.388;2023-08-20T03:28:54;94019.50;;;18.35;100.00
10261;BME280;5175;42.606;23.388;2023-08-20T03:31:21;94022.22;;;18.35;100.00
10261;BME280;5175;42.606;23.388;2023-08-20T03:33:48;94013.63;;;18.41;100.00
10261;BME280;5175;42.606;23.388;2023-08-20T03:36:15;94016.66;;;18.40;100.00
10261;BME280;5175;42.606;23.388;2023-08-20T03:38:42;94009.38;;;18.23;100.00
10261;BME280;5175;42.606;23.388;2023-08-20T03:41:09;94015.56;;;18.24;100.00
10261;BME280;5175;42.606;23.388;2023-08-20T03:43:37;94005.88;;;18.23;100.00
10261;BME280;5175;42.606;23.388;2023-08-20T03:46:05;94005.03;;;18.39;100.00
10261;BME280;5175;42.606;23.388;2023-08-20T03:48:32;94001.72;;;18.34;100.00
10261;BME280;5175;42.606;23.388;2023-08-20T03:50:59;94005.38;;;18.29;100.00
10261;BME280;5175;42.606;23.388;2023-08-20T03:53:27;94002.38;;;18.22;100.00
10261;BME280;5175;42.606;23.388;2023-08-20T03:55:54;94001.88;;;18.29;100.00
10261;BME280;5175;42.606;23.388;2023-08-20T03:58:21;94007.28;;;18.37;100.00
10261;BME280;5175;42.606;23.388;2023-08-20T04:00:47;94007.09;;;18.34;100.00
10261;BME280;5175;42.606;23.388;2023-08-20T04:03:16;94002.22;;;18.36;100.00
10261;BME280;5175;42.606;23.388;2023-08-20T04:05:45;93993.75;;;18.46;100.00
10261;BME280;5175;42.606;23.388;2023-08-20T04:08:12;94007.28;;;18.46;100.00
10261;BME280;5175;42.606;23.388;2023-08-20T04:10:42;94006.97;;;18.47;100.00
10261;BME280;5175;42.606;23.388;2023-08-20T04:13:10;94004.72;;;18.58;100.00
10261;BME280;5175;42.606;23.388;2023-08-20T04:15:39;94001.38;;;18.61;100.00
10261;BME280;5175;42.606;23.388;2023-08-20T04:18:07;93999.31;;;18.58;100.00
10261;BME280;5175;42.606;23.388;2023-08-20T04:20:36;94003.44;;;18.64;100.00
10261;BME280;5175;42.606;23.388;2023-08-20T04:23:04;93999.78;;;18.60;100.00
10261;BME280;5175;42.606;23.388;2023-08-20T04:25:32;94016.44;;;18.70;100.00
10261;BME280;5175;42.606;23.388;2023-08-20T04:27:59;93999.75;;;18.68;100.00
10261;BME280;5175;42.606;23.388;2023-08-20T04:30:30;94003.22;;;18.77;100.00
10261;BME280;5175;42.606;23.388;2023-08-20T04:32:57;94011.13;;;18.83;100.00
10261;BME280;5175;42.606;23.388;2023-08-20T04:35:23;94007.00;;;18.85;100.00
10261;BME280;5175;42.606;23.388;2023-08-20T04:37:52;94008.88;;;18.93;100.00
10261;BME280;5175;42.606;23.388;2023-08-20T04:40:18;94014.09;;;18.98;100.00
10261;BME280;5175;42.606;23.388;2023-08-20T04:42:45;94012.78;;;19.13;100.00
10261;BME280;5175;42.606;23.388;2023-08-20T04:45:12;94017.06;;;19.14;100.00
10261;BME280;5175;42.606;23.388;2023-08-20T04:47:39;94002.44;;;19.15;100.00
10261;BME280;5175;42.606;23.388;2023-08-20T04:50:06;93987.31;;;19.14;100.00
10261;BME280;5175;42.606;23.388;2023-08-20T04:52:34;93997.63;;;19.20;100.00
10261;BME280;5175;42.606;23.388;2023-08-20T04:55:03;94014.09;;;19.36;100.00
10261;BME280;5175;42.606;23.388;2023-08-20T04:57:29;94013.31;;;19.35;100.00
10261;BME280;5175;42.606;23.388;2023-08-20T04:59:56;94013.44;;;19.39;100.00
10261;BME280;5175;42.606;23.388;2023-08-20T05:02:23;94007.94;;;19.27;100.00
10261;BME280;5175;42.606;23.388;2023-08-20T05:04:50;94012.16;;;19.45;100.00
10261;BME280;5175;42.606;23.388;2023-08-20T05:07:17;94005.50;;;19.63;100.00
10261;BME280;5175;42.606;23.388;2023-08-20T05:09:44;93988.63;;;19.37;100.00
10261;BME280;5175;42.606;23.388;2023-08-20T05:12:12;94013.94;;;19.41;100.00
10261;BME280;5175;42.606;23.388;2023-08-20T05:14:39;94016.78;;;19.65;100.00
10261;BME280;5175;42.606;23.388;2023-08-20T05:17:06;94015.53;;;19.63;100.00
10261;BME280;5175;42.606;23.388;2023-08-20T05:19:32;94019.38;;;19.82;100.00
10261;BME280;5175;42.606;23.388;2023-08-20T05:21:59;94012.78;;;20.13;100.00
10261;BME280;5175;42.606;23.388;2023-08-20T05:24:26;94018.06;;;20.30;100.00
10261;BME280;5175;42.606;23.388;2023-08-20T05:27:16;94026.75;;;20.56;100.00
10261;BME280;5175;42.606;23.388;2023-08-20T05:29:43;93968.56;;;20.41;100.00
10261;BME280;5175;42.606;23.388;2023-08-20T05:32:10;93967.03;;;20.65;100.00
10261;BME280;5175;42.606;23.388;2023-08-20T05:34:37;94032.44;;;21.32;100.00
10261;BME280;5175;42.606;23.388;2023-08-20T05:37:04;94037.44;;;21.54;100.00
10261;BME280;5175;42.606;23.388;2023-08-20T05:39:36;94041.13;;;21.74;100.00
10261;BME280;5175;42.606;23.388;2023-08-20T05:42:03;94047.59;;;21.94;100.00
10261;BME280;5175;42.606;23.388;2023-08-20T05:44:32;94043.38;;;22.08;100.00
10261;BME280;5175;42.606;23.388;2023-08-20T05:46:58;94037.22;;;22.23;96.08
10261;BME280;5175;42.606;23.388;2023-08-20T05:49:26;94052.56;;;22.43;94.37
10261;BME280;5175;42.606;23.388;2023-08-20T05:51:53;94055.13;;;22.64;91.17
10261;BME280;5175;42.606;23.388;2023-08-20T05:54:20;94054.00;;;22.81;88.95
10261;BME280;5175;42.606;23.388;2023-08-20T05:56:47;94058.59;;;22.92;87.20
10261;BME280;5175;42.606;23.388;2023-08-20T05:59:13;94056.59;;;23.05;87.34
10261;BME280;5175;42.606;23.388;2023-08-20T06:01:42;94055.13;;;23.23;86.15
10261;BME280;5175;42.606;23.388;2023-08-20T06:04:09;94071.72;;;23.34;83.44
10261;BME280;5175;42.606;23.388;2023-08-20T06:23:06;94079.72;;;24.59;74.96
10261;BME280;5175;42.606;23.388;2023-08-20T06:25:33;94076.63;;;24.60;72.81
10261;BME280;5175;42.606;23.388;2023-08-20T06:28:00;94069.00;;;24.50;72.95
10261;BME280;5175;42.606;23.388;2023-08-20T06:30:26;94074.84;;;24.49;73.89
10261;BME280;5175;42.606;23.388;2023-08-20T06:32:53;94077.22;;;24.69;72.84
10261;BME280;5175;42.606;23.388;2023-08-20T06:35:20;94075.06;;;24.78;71.33
10261;BME280;5175;42.606;23.388;2023-08-20T06:37:46;94076.28;;;24.81;70.35
10261;BME280;5175;42.606;23.388;2023-08-20T06:40:14;94084.81;;;24.99;69.00
10261;BME280;5175;42.606;23.388;2023-08-20T06:42:41;94087.28;;;25.04;66.89
10261;BME280;5175;42.606;23.388;2023-08-20T06:45:08;94090.88;;;25.30;66.81
10261;BME280;5175;42.606;23.388;2023-08-20T06:47:35;94076.72;;;25.25;65.11
10261;BME280;5175;42.606;23.388;2023-08-20T06:50:02;94093.81;;;25.41;65.01
10261;BME280;5175;42.606;23.388;2023-08-20T06:52:29;94095.16;;;25.50;63.70
10261;BME280;5175;42.606;23.388;2023-08-20T06:54:56;94091.88;;;25.64;61.40
10261;BME280;5175;42.606;23.388;2023-08-20T06:57:24;94094.50;;;25.57;64.19
10261;BME280;5175;42.606;23.388;2023-08-20T06:59:51;94092.84;;;25.52;64.53
10261;BME280;5175;42.606;23.388;2023-08-20T07:02:17;94095.31;;;25.58;63.89
10261;BME280;5175;42.606;23.388;2023-08-20T07:04:44;94094.56;;;25.83;63.50
10261;BME280;5175;42.606;23.388;2023-08-20T07:07:11;94097.59;;;26.04;61.17
10261;BME280;5175;42.606;23.388;2023-08-20T07:09:40;94089.94;;;25.87;61.52
10261;BME280;5175;42.606;23.388;2023-08-20T07:12:06;94083.25;;;25.85;61.35
10261;BME280;5175;42.606;23.388;2023-08-20T07:14:35;94093.41;;;26.10;61.36
10261;BME280;5175;42.606;23.388;2023-08-20T07:17:01;94093.06;;;26.12;61.18
10261;BME280;5175;42.606;23.388;2023-08-20T07:19:28;94071.91;;;26.09;59.35
10261;BME280;5175;42.606;23.388;2023-08-20T07:21:55;94093.38;;;26.33;58.42
10261;BME280;5175;42.606;23.388;2023-08-20T07:24:22;94084.28;;;26.55;58.97
10261;BME280;5175;42.606;23.388;2023-08-20T07:26:51;94098.59;;;26.71;58.83
10261;BME280;5175;42.606;23.388;2023-08-20T07:29:17;94099.91;;;26.81;57.73
10261;BME280;5175;42.606;23.388;2023-08-20T07:31:45;94098.09;;;26.92;56.68
10261;BME280;5175;42.606;23.388;2023-08-20T07:34:12;94095.44;;;26.99;55.78
10261;BME280;5175;42.606;23.388;2023-08-20T07:36:39;94097.47;;;27.06;55.56
10261;BME280;5175;42.606;23.388;2023-08-20T07:39:06;94097.25;;;27.21;54.97
10261;BME280;5175;42.606;23.388;2023-08-20T07:41:34;94094.47;;;27.18;55.62
10261;BME280;5175;42.606;23.388;2023-08-20T07:44:00;94108.50;;;27.13;55.04
10261;BME280;5175;42.606;23.388;2023-08-20T07:46:27;94107.22;;;27.03;54.29
10261;BME280;5175;42.606;23.388;2023-08-20T07:48:55;94109.25;;;27.10;55.06
10261;BME280;5175;42.606;23.388;2023-08-20T07:51:22;94099.16;;;27.17;53.84
10261;BME280;5175;42.606;23.388;2023-08-20T07:53:49;94098.63;;;27.05;54.32
10261;BME280;5175;42.606;23.388;2023-08-20T07:56:15;94105.16;;;27.30;54.46
10261;BME280;5175;42.606;23.388;2023-08-20T07:58:42;94099.66;;;27.26;53.19
10261;BME280;5175;42.606;23.388;2023-08-20T08:01:09;94103.75;;;27.43;52.46
10261;BME280;5175;42.606;23.388;2023-08-20T08:03:35;94096.84;;;27.56;51.93
10261;BME280;5175;42.606;23.388;2023-08-20T08:06:03;94106.19;;;27.52;50.59
10261;BME280;5175;42.606;23.388;2023-08-20T08:08:30;94104.38;;;27.63;50.77
10261;BME280;5175;42.606;23.388;2023-08-20T08:10:57;94101.19;;;28.01;49.97
10261;BME280;5175;42.606;23.388;2023-08-20T08:13:24;94103.22;;;28.11;48.33
10261;BME280;5175;42.606;23.388;2023-08-20T08:15:50;94109.13;;;28.13;49.09
10261;BME280;5175;42.606;23.388;2023-08-20T08:18:18;94109.94;;;28.21;47.07
10261;BME280;5175;42.606;23.388;2023-08-20T08:20:44;94092.41;;;28.32;46.32
10261;BME280;5175;42.606;23.388;2023-08-20T08:23:13;94110.09;;;28.42;45.63
10261;BME280;5175;42.606;23.388;2023-08-20T08:25:40;94111.06;;;28.67;45.92
10261;BME280;5175;42.606;23.388;2023-08-20T08:28:06;94107.88;;;28.62;46.99
10261;BME280;5175;42.606;23.388;2023-08-20T08:30:33;94104.13;;;28.94;46.43
10261;BME280;5175;42.606;23.388;2023-08-20T08:33:00;94108.13;;;29.14;44.77
10261;BME280;5175;42.606;23.388;2023-08-20T08:35:27;94096.66;;;28.95;45.81
10261;BME280;5175;42.606;23.388;2023-08-20T08:37:53;94104.59;;;29.07;42.64
10261;BME280;5175;42.606;23.388;2023-08-20T08:40:22;94083.63;;;28.74;43.14
10261;BME280;5175;42.606;23.388;2023-08-20T08:42:49;94086.81;;;28.87;42.97
10261;BME280;5175;42.606;23.388;2023-08-20T08:45:17;94101.41;;;29.05;41.00
10261;BME280;5175;42.606;23.388;2023-08-20T08:47:45;94100.69;;;29.18;42.39
10261;BME280;5175;42.606;23.388;2023-08-20T08:50:12;94105.34;;;29.04;43.23
10261;BME280;5175;42.606;23.388;2023-08-20T08:52:39;94108.63;;;29.34;42.57
10261;BME280;5175;42.606;23.388;2023-08-20T08:55:07;94111.72;;;29.26;41.84
10261;BME280;5175;42.606;23.388;2023-08-20T08:57:36;94107.44;;;29.46;42.19
10261;BME280;5175;42.606;23.388;2023-08-20T09:00:03;94103.94;;;29.56;42.46
10261;BME280;5175;42.606;23.388;2023-08-20T09:02:31;94108.97;;;29.22;42.88
10261;BME280;5175;42.606;23.388;2023-08-20T09:04:58;94111.31;;;29.24;40.52
10261;BME280;5175;42.606;23.388;2023-08-20T09:07:25;94107.06;;;29.47;39.61
10261;BME280;5175;42.606;23.388;2023-08-20T09:09:57;94112.22;;;29.73;39.80
10261;BME280;5175;42.606;23.388;2023-08-20T09:12:24;94106.28;;;29.47;40.62
10261;BME280;5175;42.606;23.388;2023-08-20T09:14:53;94106.22;;;29.33;41.03
10261;BME280;5175;42.606;23.388;2023-08-20T09:17:24;94107.09;;;29.72;41.46
10261;BME280;5175;42.606;23.388;2023-08-20T09:19:54;94107.56;;;29.99;40.52
10261;BME280;5175;42.606;23.388;2023-08-20T09:22:21;94116.97;;;30.05;39.59
10261;BME280;5175;42.606;23.388;2023-08-20T09:24:53;94107.94;;;30.18;38.74
10261;BME280;5175;42.606;23.388;2023-08-20T09:27:20;94104.00;;;30.12;39.54
10261;BME280;5175;42.606;23.388;2023-08-20T09:29:46;94110.31;;;30.16;39.88
10261;BME280;5175;42.606;23.388;2023-08-20T09:32:16;94114.22;;;30.26;40.61
10261;BME280;5175;42.606;23.388;2023-08-20T09:34:43;94114.22;;;30.33;39.32
10261;BME280;5175;42.606;23.388;2023-08-20T09:37:10;94115.03;;;30.05;37.86
10261;BME280;5175;42.606;23.388;2023-08-20T09:39:37;94109.13;;;30.17;38.06
10261;BME280;5175;42.606;23.388;2023-08-20T09:42:04;94107.94;;;30.36;37.15
10261;BME280;5175;42.606;23.388;2023-08-20T09:44:33;94109.88;;;30.60;38.31
10261;BME280;5175;42.606;23.388;2023-08-20T09:47:02;94099.63;;;30.71;37.79
10261;BME280;5175;42.606;23.388;2023-08-20T09:49:36;94109.81;;;30.88;37.26
10261;BME280;5175;42.606;23.388;2023-08-20T09:52:04;94106.59;;;31.08;36.55
10261;BME280;5175;42.606;23.388;2023-08-20T09:54:40;94108.63;;;30.86;36.60
10261;BME280;5175;42.606;23.388;2023-08-20T09:57:14;94107.91;;;30.71;36.76
10261;BME280;5175;42.606;23.388;2023-08-20T09:59:46;94101.97;;;30.94;37.11
10261;BME280;5175;42.606;23.388;2023-08-20T10:02:14;94106.22;;;31.06;35.52
10261;BME280;5175;42.606;23.388;2023-08-20T10:04:43;94105.34;;;31.23;36.03
10261;BME280;5175;42.606;23.388;2023-08-20T10:07:11;94105.78;;;31.18;35.39
10261;BME280;5175;42.606;23.388;2023-08-20T10:09:39;94106.94;;;31.20;36.07
10261;BME280;5175;42.606;23.388;2023-08-20T10:12:07;94105.47;;;30.87;37.68
10261;BME280;5175;42.606;23.388;2023-08-20T10:14:34;94102.34;;;30.85;35.82
10261;BME280;5175;42.606;23.388;2023-08-20T10:17:06;94095.16;;;31.16;35.62
10261;BME280;5175;42.606;23.388;2023-08-20T10:19:33;94110.41;;;31.38;35.63
10261;BME280;5175;42.606;23.388;2023-08-20T10:22:03;94106.84;;;31.41;36.25
10261;BME280;5175;42.606;23.388;2023-08-20T10:24:40;94101.69;;;31.43;35.89
10261;BME280;5175;42.606;23.388;2023-08-20T10:27:08;94098.19;;;31.43;35.04
10261;BME280;5175;42.606;23.388;2023-08-20T10:29:39;94096.09;;;31.68;36.60
10261;BME280;5175;42.606;23.388;2023-08-20T10:32:09;94097.94;;;31.85;35.66
10261;BME280;5175;42.606;23.388;2023-08-20T10:34:37;94105.84;;;31.83;34.93
10261;BME280;5175;42.606;23.388;2023-08-20T10:37:10;94096.56;;;31.56;34.41
10261;BME280;5175;42.606;23.388;2023-08-20T10:39:38;94105.59;;;31.60;34.89
10261;BME280;5175;42.606;23.388;2023-08-20T10:42:09;94091.94;;;31.32;35.79
10261;BME280;5175;42.606;23.388;2023-08-20T10:45:00;94082.81;;;31.38;36.14
10261;BME280;5175;42.606;23.388;2023-08-20T10:47:36;94079.78;;;31.22;37.15
10261;BME280;5175;42.606;23.388;2023-08-20T10:50:03;94085.25;;;31.29;36.41
10261;BME280;5175;42.606;23.388;2023-08-20T10:52:31;94088.69;;;31.51;38.41
10261;BME280;5175;42.606;23.388;2023-08-20T10:54:58;94068.50;;;31.65;36.78
10261;BME280;5175;42.606;23.388;2023-08-20T10:57:33;94088.13;;;31.77;36.29
10261;BME280;5175;42.606;23.388;2023-08-20T11:00:02;94081.38;;;31.85;35.99
10261;BME280;5175;42.606;23.388;2023-08-20T11:02:35;94080.69;;;31.67;35.89
10261;BME280;5175;42.606;23.388;2023-08-20T11:05:02;94043.22;;;31.70;35.26
10261;BME280;5175;42.606;23.388;2023-08-20T11:07:31;94080.19;;;31.83;34.74
10261;BME280;5175;42.606;23.388;2023-08-20T11:10:00;94077.44;;;31.86;35.48
10261;BME280;5175;42.606;23.388;2023-08-20T11:12:29;94075.63;;;31.62;34.94
10261;BME280;5175;42.606;23.388;2023-08-20T11:15:00;94073.28;;;31.61;36.56
10261;BME280;5175;42.606;23.388;2023-08-20T11:17:27;94064.31;;;32.01;36.41
10261;BME280;5175;42.606;23.388;2023-08-20T11:19:54;94065.97;;;31.88;36.23
10261;BME280;5175;42.606;23.388;2023-08-20T11:22:20;94069.31;;;32.16;36.32
10261;BME280;5175;42.606;23.388;2023-08-20T11:24:48;94057.97;;;32.07;35.26
10261;BME280;5175;42.606;23.388;2023-08-20T11:27:15;94058.00;;;32.41;35.12
10261;BME280;5175;42.606;23.388;2023-08-20T11:29:42;94056.03;;;32.45;34.43
10261;BME280;5175;42.606;23.388;2023-08-20T11:32:09;94061.75;;;32.65;36.20
10261;BME280;5175;42.606;23.388;2023-08-20T11:34:36;94060.03;;;32.78;34.25
10261;BME280;5175;42.606;23.388;2023-08-20T11:37:04;94055.19;;;32.52;34.48
10261;BME280;5175;42.606;23.388;2023-08-20T11:39:31;94058.28;;;32.57;34.68
10261;BME280;5175;42.606;23.388;2023-08-20T11:41:59;94058.44;;;32.40;33.93
10261;BME280;5175;42.606;23.388;2023-08-20T11:44:27;94055.53;;;32.57;34.99
10261;BME280;5175;42.606;23.388;2023-08-20T11:46:53;94047.78;;;32.79;35.75
10261;BME280;5175;42.606;23.388;2023-08-20T11:49:27;94051.78;;;33.08;35.42
10261;BME280;5175;42.606;23.388;2023-08-20T11:51:55;94044.41;;;33.28;33.89
10261;BME280;5175;42.606;23.388;2023-08-20T11:54:22;94049.44;;;33.07;32.64
10261;BME280;5175;42.606;23.388;2023-08-20T11:56:51;94046.31;;;33.05;34.76
10261;BME280;5175;42.606;23.388;2023-08-20T11:59:20;94042.03;;;32.97;33.65
10261;BME280;5175;42.606;23.388;2023-08-20T12:01:51;94050.69;;;32.99;33.18
10261;BME280;5175;42.606;23.388;2023-08-20T12:04:18;94044.56;;;33.18;32.96
10261;BME280;5175;42.606;23.388;2023-08-20T12:07:01;94042.94;;;33.20;32.76
10261;BME280;5175;42.606;23.388;2023-08-20T12:09:30;94047.91;;;33.02;32.91
10261;BME280;5175;42.606;23.388;2023-08-20T12:11:58;94046.59;;;33.14;34.32
10261;BME280;5175;42.606;23.388;2023-08-20T12:14:26;94024.56;;;33.03;32.80
10261;BME280;5175;42.606;23.388;2023-08-20T12:16:54;94035.50;;;33.14;33.76
10261;BME280;5175;42.606;23.388;2023-08-20T12:19:20;94030.63;;;33.25;34.17
10261;BME280;5175;42.606;23.388;2023-08-20T12:21:47;94031.66;;;32.74;34.23
10261;BME280;5175;42.606;23.388;2023-08-20T12:24:15;94026.44;;;33.13;35.24
10261;BME280;5175;42.606;23.388;2023-08-20T12:26:42;94028.16;;;33.00;33.39
10261;BME280;5175;42.606;23.388;2023-08-20T12:29:08;94028.00;;;33.14;34.13
10261;BME280;5175;42.606;23.388;2023-08-20T12:31:38;94024.31;;;32.91;33.18
10261;BME280;5175;42.606;23.388;2023-08-20T12:34:05;94025.03;;;32.98;34.25
10261;BME280;5175;42.606;23.388;2023-08-20T12:36:32;94024.44;;;33.14;34.70
10261;BME280;5175;42.606;23.388;2023-08-20T12:38:58;94020.25;;;33.02;34.53
10261;BME280;5175;42.606;23.388;2023-08-20T12:41:25;94024.56;;;33.07;33.24
10261;BME280;5175;42.606;23.388;2023-08-20T12:43:52;94015.97;;;33.28;34.03
10261;BME280;5175;42.606;23.388;2023-08-20T12:46:19;94014.56;;;33.43;34.55
10261;BME280;5175;42.606;23.388;2023-08-20T12:48:47;94015.28;;;33.47;33.52
10261;BME280;5175;42.606;23.388;2023-08-20T12:51:14;94019.38;;;33.66;34.29
10261;BME280;5175;42.606;23.388;2023-08-20T12:53:42;94009.84;;;33.67;34.19
10261;BME280;5175;42.606;23.388;2023-08-20T12:56:09;94014.56;;;33.70;33.34
10261;BME280;5175;42.606;23.388;2023-08-20T12:58:37;94013.38;;;33.71;34.24
10261;BME280;5175;42.606;23.388;2023-08-20T13:01:04;94016.38;;;33.80;31.89
10261;BME280;5175;42.606;23.388;2023-08-20T13:03:31;94016.50;;;33.96;32.39
10261;BME280;5175;42.606;23.388;2023-08-20T13:05:59;94012.47;;;34.00;33.39
10261;BME280;5175;42.606;23.388;2023-08-20T13:08:27;94021.75;;;33.90;32.43
10261;BME280;5175;42.606;23.388;2023-08-20T13:10:56;94015.59;;;34.06;35.60
10261;BME280;5175;42.606;23.388;2023-08-20T13:13:23;94015.53;;;34.10;32.80
10261;BME280;5175;42.606;23.388;2023-08-20T13:15:51;93996.84;;;34.14;34.96
10261;BME280;5175;42.606;23.388;2023-08-20T13:18:19;94010.66;;;34.17;32.14